Time;durP1;ratioP1;P1;durP2;ratioP2;P2;SDS_P1;SDS_P2;PMS_P1;PMS_P2;Temp;Humidity;BMP_temperature;BMP_pressure;BME280_temperature;BME280_humidity;BME280_pressure;Samples;Min_cycle;Max_cycle;Signal;HPM_P1;HPM_P2
2021/11/19 00:01:02;;;;;;;14.57;7.03;;;10.10;99.90;;;;;;5051331;28;20025;-40
2021/11/19 00:03:28;;;;;;;12.10;8.05;;;10.20;99.90;;;;;;5050751;28;20041;-41
2021/11/19 00:05:55;;;;;;;15.05;8.38;;;10.20;99.90;;;;;;5050120;28;20025;-41
2021/11/19 00:08:25;;;;;;;13.65;8.00;;;10.20;99.90;;;;;;5051018;28;20033;-40
2021/11/19 00:11:03;;;;;;;12.85;7.88;;;10.20;99.90;;;;;;5051092;28;20039;-41
2021/11/19 00:13:29;;;;;;;17.85;7.50;;;10.20;99.90;;;;;;5050818;28;20021;-40
2021/11/19 00:15:56;;;;;;;10.32;7.47;;;10.20;99.90;;;;;;5050980;28;20091;-41
2021/11/19 00:18:22;;;;;;;10.93;7.50;;;10.20;99.90;;;;;;5050964;28;20502;-41
2021/11/19 00:20:48;;;;;;;12.02;6.95;;;10.30;99.90;;;;;;5050151;28;20068;-41
2021/11/19 00:23:15;;;;;;;14.88;7.82;;;10.30;99.90;;;;;;5050717;28;20464;-38
2021/11/19 00:25:40;;;;;;;14.20;8.30;;;10.20;99.90;;;;;;5050984;28;20033;-38
2021/11/19 00:28:07;;;;;;;18.30;8.10;;;10.30;99.90;;;;;;5050712;28;20177;-41
2021/11/19 00:30:35;;;;;;;12.43;8.07;;;10.30;99.90;;;;;;5051017;28;20037;-41
2021/11/19 00:33:01;;;;;;;16.52;8.85;;;10.30;99.90;;;;;;5050726;28;20025;-41
2021/11/19 00:35:28;;;;;;;27.95;10.55;;;10.30;99.90;;;;;;5050763;28;20049;-41
2021/11/19 00:37:55;;;;;;;13.25;8.98;;;10.30;99.90;;;;;;5049919;28;20037;-40
2021/11/19 00:40:26;;;;;;;11.20;8.00;;;10.30;99.90;;;;;;5050659;28;20043;-41
2021/11/19 00:42:51;;;;;;;14.45;8.60;;;10.30;99.90;;;;;;5050864;28;20060;-43
2021/11/19 00:45:17;;;;;;;16.23;9.88;;;10.30;99.90;;;;;;5050675;28;20068;-43
2021/11/19 00:47:43;;;;;;;18.52;10.40;;;10.30;99.90;;;;;;5050844;28;20112;-40
2021/11/19 00:50:10;;;;;;;16.42;8.65;;;10.30;99.90;;;;;;5050476;28;20032;-40
2021/11/19 00:52:36;;;;;;;16.48;8.98;;;10.30;99.90;;;;;;5049885;28;20035;-41
2021/11/19 00:55:02;;;;;;;15.57;9.27;;;10.30;99.90;;;;;;5050809;28;20119;-40
2021/11/19 00:57:28;;;;;;;13.18;8.77;;;10.40;99.90;;;;;;5050481;28;20460;-41
2021/11/19 00:59:53;;;;;;;14.57;8.30;;;10.40;99.90;;;;;;5050763;28;20056;-40
2021/11/19 01:02:23;;;;;;;16.92;9.02;;;10.40;99.90;;;;;;5050428;28;20479;-40
2021/11/19 01:04:49;;;;;;;15.30;9.68;;;10.40;99.90;;;;;;5050582;28;20025;-41
2021/11/19 01:07:17;;;;;;;13.75;9.25;;;10.40;99.90;;;;;;5049374;28;20108;-43
2021/11/19 01:09:48;;;;;;;16.58;8.40;;;10.40;99.90;;;;;;5050596;28;20036;-41
2021/11/19 01:12:17;;;;;;;11.00;7.60;;;10.40;99.90;;;;;;5050414;28;20036;-43
2021/11/19 01:15:04;;;;;;;20.20;9.30;;;10.40;99.90;;;;;;5050543;28;20453;-42
2021/11/19 01:17:37;;;;;;;13.60;8.20;;;10.40;99.90;;;;;;5050310;28;20076;-40
2021/11/19 01:20:19;;;;;;;12.85;8.32;;;10.50;99.90;;;;;;5050509;28;20021;-40
2021/11/19 01:22:47;;;;;;;14.40;8.40;;;10.50;99.90;;;;;;5049315;28;20029;-40
2021/11/19 01:25:16;;;;;;;14.07;8.60;;;10.50;99.90;;;;;;5053191;28;20064;-41
2021/11/19 01:27:42;;;;;;;14.43;8.60;;;10.50;99.90;;;;;;5054170;28;20025;-41
2021/11/19 01:30:11;;;;;;;12.90;9.77;;;10.50;99.90;;;;;;5054037;28;20116;-42
2021/11/19 01:32:37;;;;;;;11.50;7.93;;;10.50;99.90;;;;;;5054074;28;20025;-40
2021/11/19 01:35:03;;;;;;;14.77;9.70;;;10.50;99.90;;;;;;5053882;28;20096;-42
2021/11/19 01:37:29;;;;;;;19.90;9.70;;;10.50;99.90;;;;;;5053003;28;20041;-40
2021/11/19 01:39:54;;;;;;;12.48;8.88;;;10.60;99.90;;;;;;5054027;28;20389;-40
2021/11/19 01:42:25;;;;;;;17.38;9.00;;;10.60;99.90;;;;;;5053610;28;20033;-41
2021/11/19 01:45:08;;;;;;;13.43;8.43;;;10.60;99.90;;;;;;5053865;28;20032;-40
2021/11/19 01:47:37;;;;;;;14.90;8.90;;;10.50;99.90;;;;;;5053491;28;20124;-40
2021/11/19 01:50:09;;;;;;;14.23;9.20;;;10.60;99.90;;;;;;5053736;28;20025;-41
2021/11/19 01:52:39;;;;;;;14.45;9.50;;;10.60;99.90;;;;;;5052545;28;20040;-39
2021/11/19 01:55:14;;;;;;;15.52;10.93;;;10.60;99.90;;;;;;5053458;28;20407;-41
2021/11/19 01:57:46;;;;;;;19.35;10.63;;;10.60;99.90;;;;;;5053662;28;20036;-41
2021/11/19 02:00:20;;;;;;;16.88;9.57;;;10.60;99.90;;;;;;5053514;28;20632;-40
2021/11/19 02:02:50;;;;;;;12.75;8.95;;;10.60;99.90;;;;;;5053334;28;20060;-42
2021/11/19 02:05:25;;;;;;;15.02;9.15;;;10.60;99.90;;;;;;5053307;28;20027;-41
2021/11/19 02:07:54;;;;;;;15.13;9.70;;;10.60;99.90;;;;;;5014732;28;20355;-40
2021/11/19 02:10:26;;;;;;;16.88;9.18;;;10.60;99.90;;;;;;5015204;28;20041;-41
2021/11/19 02:12:54;;;;;;;15.32;9.15;;;10.60;99.90;;;;;;5015001;28;20108;-43
2021/11/19 02:15:31;;;;;;;12.43;8.65;;;10.60;99.90;;;;;;5015049;28;20393;-40
2021/11/19 02:18:02;;;;;;;11.73;8.50;;;10.70;99.90;;;;;;5014833;28;20026;-41
2021/11/19 02:20:34;;;;;;;15.52;9.77;;;10.70;99.90;;;;;;5015040;28;20034;-40
2021/11/19 02:23:06;;;;;;;18.08;10.38;;;10.70;99.90;;;;;;5012972;28;20437;-41
2021/11/19 02:25:39;;;;;;;15.43;10.07;;;10.70;99.90;;;;;;5014989;28;20037;-40
2021/11/19 02:28:10;;;;;;;15.05;8.82;;;10.70;99.90;;;;;;5014930;28;20029;-41
2021/11/19 02:30:59;;;;;;;11.02;7.65;;;10.70;99.90;;;;;;5014835;28;20026;-40
2021/11/19 02:33:27;;;;;;;15.48;9.98;;;10.70;99.90;;;;;;5014629;28;20041;-40
2021/11/19 02:36:11;;;;;;;16.48;9.32;;;10.70;99.90;;;;;;5013686;28;20393;-43
2021/11/19 02:38:43;;;;;;;12.57;7.55;;;10.70;99.90;;;;;;5014705;28;20427;-45
2021/11/19 02:41:09;;;;;;;11.60;7.70;;;10.70;99.90;;;;;;5014807;28;20060;-41
2021/11/19 02:43:40;;;;;;;14.95;7.78;;;10.70;99.90;;;;;;5014552;28;20057;-42
2021/11/19 02:46:08;;;;;;;10.02;7.35;;;10.70;99.90;;;;;;5014628;28;20462;-41
2021/11/19 02:48:35;;;;;;;14.95;8.45;;;10.70;99.90;;;;;;5014492;28;20029;-41
2021/11/19 02:51:05;;;;;;;12.68;8.23;;;10.70;99.90;;;;;;5013619;28;20065;-40
2021/11/19 02:53:31;;;;;;;13.60;8.60;;;10.80;99.90;;;;;;5014310;28;20045;-41
2021/11/19 02:55:58;;;;;;;12.82;8.55;;;10.80;99.90;;;;;;5014490;28;20389;-40
2021/11/19 02:58:35;;;;;;;14.63;8.15;;;10.80;99.90;;;;;;5014369;28;20061;-40
2021/11/19 03:01:08;;;;;;;14.18;8.57;;;10.80;99.90;;;;;;5014247;28;20030;-40
2021/11/19 03:03:35;;;;;;;11.43;7.90;;;10.80;99.90;;;;;;5014140;28;20068;-41
2021/11/19 03:06:03;;;;;;;13.38;8.52;;;10.80;99.90;;;;;;5013201;28;20018;-40
2021/11/19 03:08:29;;;;;;;12.10;8.07;;;10.80;99.90;;;;;;5014114;28;20520;-40
2021/11/19 03:10:56;;;;;;;11.93;7.88;;;10.90;99.90;;;;;;5014141;28;20022;-40
2021/11/19 03:13:24;;;;;;;15.32;8.60;;;10.80;99.90;;;;;;5013876;28;20022;-41
2021/11/19 03:15:50;;;;;;;14.57;9.32;;;10.80;99.90;;;;;;5014044;28;20474;-40
2021/11/19 03:18:18;;;;;;;12.02;7.72;;;10.90;99.90;;;;;;5013842;28;20388;-40
2021/11/19 03:20:47;;;;;;;11.50;7.40;;;10.90;99.90;;;;;;5013094;28;20435;-40
2021/11/19 03:23:13;;;;;;;12.13;8.05;;;10.90;99.90;;;;;;5013783;28;20084;-40
2021/11/19 03:25:40;;;;;;;9.60;6.90;;;10.90;99.90;;;;;;5013847;28;20501;-43
2021/11/19 03:28:09;;;;;;;11.30;7.95;;;10.90;99.90;;;;;;5013819;28;20124;-40
2021/11/19 03:30:36;;;;;;;9.32;6.60;;;10.90;99.90;;;;;;5013747;28;20097;-41
2021/11/19 03:33:02;;;;;;;10.43;6.82;;;10.90;99.90;;;;;;5013466;28;20076;-40
2021/11/19 03:35:29;;;;;;;13.35;7.05;;;11.00;99.90;;;;;;5013647;28;20060;-41
2021/11/19 03:37:56;;;;;;;13.07;7.97;;;11.00;99.90;;;;;;5012901;28;20030;-41
2021/11/19 03:40:25;;;;;;;10.02;7.25;;;11.00;99.90;;;;;;5013587;28;20033;-43
2021/11/19 03:42:52;;;;;;;9.73;6.35;;;11.00;99.90;;;;;;5013592;28;20500;-40
2021/11/19 03:45:22;;;;;;;8.32;5.97;;;11.00;99.90;;;;;;5013564;28;20033;-40
2021/11/19 03:47:50;;;;;;;7.15;5.78;;;11.10;99.90;;;;;;5012984;28;20037;-40
2021/11/19 03:50:25;;;;;;;7.78;6.40;;;11.10;99.90;;;;;;5013382;28;20069;-40
2021/11/19 03:52:51;;;;;;;8.52;6.57;;;11.10;99.90;;;;;;5012591;28;20029;-40
2021/11/19 03:55:21;;;;;;;8.65;5.93;;;11.10;99.90;;;;;;5013471;28;20496;-40
2021/11/19 03:57:50;;;;;;;10.88;6.93;;;11.20;99.90;;;;;;5013279;28;20097;-43
2021/11/19 04:00:41;;;;;;;9.05;6.03;;;11.10;99.90;;;;;;5013268;28;20472;-40
2021/11/19 04:03:09;;;;;;;9.73;6.35;;;11.20;99.90;;;;;;5013181;28;20541;-40
2021/11/19 04:05:36;;;;;;;9.18;6.43;;;11.20;99.90;;;;;;5012490;28;20025;-41
2021/11/19 04:08:03;;;;;;;6.55;5.00;;;11.10;99.90;;;;;;5013159;28;20021;-42
2021/11/19 04:10:29;;;;;;;11.45;7.13;;;11.20;99.90;;;;;;5012949;28;20045;-40
2021/11/19 04:12:55;;;;;;;12.05;7.22;;;11.20;99.90;;;;;;5013182;28;20029;-40
2021/11/19 04:15:26;;;;;;;11.65;6.53;;;11.20;99.90;;;;;;5013100;28;20041;-43
2021/11/19 04:17:51;;;;;;;11.32;6.28;;;11.20;99.90;;;;;;5013024;28;20025;-40
2021/11/19 04:20:19;;;;;;;9.15;5.60;;;11.20;99.90;;;;;;5013121;28;20457;-41
2021/11/19 04:22:45;;;;;;;9.15;6.07;;;11.20;99.90;;;;;;5011941;28;20110;-40
2021/11/19 04:25:13;;;;;;;9.65;6.70;;;11.20;99.90;;;;;;5012892;28;20386;-40
2021/11/19 04:27:39;;;;;;;9.32;6.35;;;11.20;99.90;;;;;;5012799;28;20030;-40
2021/11/19 04:30:09;;;;;;;6.95;5.57;;;11.20;99.90;;;;;;5013020;28;20068;-40
2021/11/19 04:32:35;;;;;;;10.45;6.53;;;11.20;99.90;;;;;;5012942;28;20030;-40
2021/11/19 04:35:01;;;;;;;11.50;6.68;;;11.20;99.90;;;;;;5012761;28;20148;-43
2021/11/19 04:37:27;;;;;;;10.60;6.93;;;11.30;99.90;;;;;;5011952;28;20109;-40
2021/11/19 04:39:53;;;;;;;8.15;6.32;;;11.30;99.90;;;;;;5012749;28;20426;-43
2021/11/19 04:42:20;;;;;;;10.20;6.28;;;11.20;99.90;;;;;;5012770;28;20104;-40
2021/11/19 04:44:46;;;;;;;8.68;5.93;;;11.30;99.90;;;;;;5012678;28;20026;-40
2021/11/19 04:47:12;;;;;;;9.70;5.90;;;11.30;99.90;;;;;;5012746;28;20030;-43
2021/11/19 04:49:38;;;;;;;10.00;6.65;;;11.30;99.90;;;;;;5012675;28;20022;-40
2021/11/19 04:52:06;;;;;;;9.32;6.05;;;11.30;99.90;;;;;;5011780;28;20033;-40
2021/11/19 04:54:32;;;;;;;10.50;6.45;;;11.30;99.90;;;;;;5012497;28;20405;-40
2021/11/19 04:56:58;;;;;;;10.65;5.90;;;11.30;99.90;;;;;;5012734;28;20037;-41
2021/11/19 04:59:24;;;;;;;8.43;6.68;;;11.30;99.90;;;;;;5014342;28;20092;-41
2021/11/19 05:01:54;;;;;;;13.73;7.20;;;11.30;99.90;;;;;;5016512;28;20026;-40
2021/11/19 05:04:20;;;;;;;9.52;6.15;;;11.30;99.90;;;;;;5016596;28;20129;-43
2021/11/19 05:06:45;;;;;;;9.48;5.93;;;11.30;99.90;;;;;;5015372;28;20065;-40
2021/11/19 05:09:12;;;;;;;11.32;6.45;;;11.30;99.90;;;;;;5016454;28;20553;-41
2021/11/19 05:11:49;;;;;;;11.52;7.15;;;11.40;99.90;;;;;;5016325;28;20084;-42
2021/11/19 05:14:15;;;;;;;10.35;6.75;;;11.30;99.90;;;;;;5016445;28;20097;-41
2021/11/19 05:16:41;;;;;;;11.30;7.63;;;11.30;99.90;;;;;;5016242;28;20064;-41
2021/11/19 05:19:07;;;;;;;13.57;8.80;;;11.30;99.90;;;;;;5016073;28;20057;-40
2021/11/19 05:21:34;;;;;;;9.85;7.03;;;11.30;99.90;;;;;;5015141;28;20052;-40
2021/11/19 05:24:00;;;;;;;13.35;8.70;;;11.40;99.90;;;;;;5015988;28;20029;-41
2021/11/19 05:26:28;;;;;;;13.60;9.65;;;11.30;99.90;;;;;;5016168;28;20101;-40
2021/11/19 05:28:55;;;;;;;16.20;9.30;;;11.30;99.90;;;;;;5016025;28;20014;-40
2021/11/19 05:31:21;;;;;;;12.93;8.75;;;11.30;99.90;;;;;;5016075;28;20040;-40
2021/11/19 05:33:47;;;;;;;12.27;8.80;;;11.30;99.90;;;;;;5015712;28;20054;-40
2021/11/19 05:36:14;;;;;;;12.73;8.45;;;11.30;99.90;;;;;;5014894;28;20037;-43
2021/11/19 05:38:40;;;;;;;14.85;8.98;;;11.30;99.90;;;;;;5015827;28;20533;-41
2021/11/19 05:41:08;;;;;;;13.70;8.88;;;11.30;99.90;;;;;;5015902;28;20029;-40
2021/11/19 05:43:36;;;;;;;14.07;9.15;;;11.30;99.90;;;;;;5015672;28;20026;-40
2021/11/19 05:46:03;;;;;;;15.05;9.00;;;11.30;99.90;;;;;;5015612;28;20434;-42
2021/11/19 05:48:28;;;;;;;14.65;9.65;;;11.30;99.90;;;;;;5015641;28;20473;-41
2021/11/19 05:50:55;;;;;;;18.17;9.68;;;11.30;99.90;;;;;;5014781;28;20026;-40
2021/11/19 05:53:20;;;;;;;15.95;9.55;;;11.30;99.90;;;;;;5015714;28;20117;-43
2021/11/19 05:55:48;;;;;;;16.52;9.88;;;11.30;99.90;;;;;;5015524;28;20116;-40
2021/11/19 05:58:15;;;;;;;17.95;10.38;;;11.30;99.90;;;;;;5015608;28;20065;-41
2021/11/19 06:01:03;;;;;;;14.57;9.35;;;11.30;99.90;;;;;;5015443;28;20049;-43
2021/11/19 06:03:28;;;;;;;15.40;9.52;;;11.30;99.90;;;;;;5015005;28;20042;-43
2021/11/19 06:05:54;;;;;;;18.45;9.95;;;11.30;99.90;;;;;;5014024;28;20026;-41
2021/11/19 06:08:20;;;;;;;15.70;9.57;;;11.30;99.90;;;;;;5015418;28;20022;-41
2021/11/19 06:10:53;;;;;;;16.08;10.85;;;11.30;99.90;;;;;;5014511;28;20498;-44
2021/11/19 06:13:24;;;;;;;15.38;9.40;;;11.30;99.90;;;;;;5015171;28;20049;-41
2021/11/19 06:15:54;;;;;;;16.98;10.10;;;11.40;99.90;;;;;;5014972;28;20029;-40
2021/11/19 06:18:26;;;;;;;14.52;9.25;;;11.40;99.90;;;;;;5015157;28;20076;-40
2021/11/19 06:20:56;;;;;;;13.38;8.48;;;11.40;99.90;;;;;;5013675;28;20406;-43
2021/11/19 06:23:34;;;;;;;13.88;8.90;;;11.50;99.90;;;;;;5014907;28;20038;-48
2021/11/19 06:26:02;;;;;;;13.75;8.68;;;11.50;99.90;;;;;;5014874;28;20521;-45
2021/11/19 06:28:32;;;;;;;14.80;8.82;;;11.50;99.90;;;;;;5014938;28;20388;-42
2021/11/19 06:30:59;;;;;;;13.98;8.48;;;11.50;99.90;;;;;;5014845;28;20050;-43
2021/11/19 06:33:25;;;;;;;13.23;8.07;;;11.50;99.90;;;;;;5014770;28;20042;-47
2021/11/19 06:35:50;;;;;;;13.57;8.27;;;11.50;99.90;;;;;;5013489;28;20072;-41
2021/11/19 06:38:17;;;;;;;16.25;8.40;;;11.60;99.90;;;;;;5014765;28;20025;-43
2021/11/19 06:40:43;;;;;;;13.95;7.97;;;11.60;99.90;;;;;;5014370;28;20378;-41
2021/11/19 06:43:09;;;;;;;14.48;7.97;;;11.60;99.90;;;;;;5014576;28;20033;-44
2021/11/19 06:45:35;;;;;;;13.27;8.07;;;11.60;99.90;;;;;;5014674;28;20212;-43
2021/11/19 06:48:03;;;;;;;13.75;8.75;;;11.60;99.90;;;;;;5014569;28;20053;-45
2021/11/19 06:50:29;;;;;;;12.20;7.97;;;11.60;99.90;;;;;;5013964;28;20022;-41
2021/11/19 06:52:55;;;;;;;17.98;9.02;;;11.60;99.90;;;;;;5014046;28;20022;-42
2021/11/19 06:55:20;;;;;;;15.00;8.60;;;11.70;99.90;;;;;;5014300;28;20101;-43
2021/11/19 06:57:46;;;;;;;14.15;8.32;;;11.70;99.90;;;;;;5014252;28;20030;-40
2021/11/19 07:00:22;;;;;;;15.48;7.38;;;11.60;99.90;;;;;;5014338;28;20034;-41
2021/11/19 07:02:48;;;;;;;9.75;6.85;;;11.70;99.90;;;;;;5014203;28;20032;-43
2021/11/19 07:05:15;;;;;;;11.27;6.60;;;11.70;99.90;;;;;;5009975;28;20385;-40
2021/11/19 07:07:41;;;;;;;9.07;6.03;;;11.70;99.90;;;;;;5012692;28;20418;-42
2021/11/19 07:10:08;;;;;;;10.23;6.13;;;11.80;99.90;;;;;;5013931;28;20532;-43
2021/11/19 07:12:34;;;;;;;8.93;6.15;;;11.80;99.90;;;;;;5013944;28;20104;-40
2021/11/19 07:14:59;;;;;;;10.27;7.10;;;11.80;99.90;;;;;;5013720;28;20105;-45
2021/11/19 07:17:25;;;;;;;8.70;6.85;;;11.80;99.90;;;;;;5013718;28;20026;-40
2021/11/19 07:19:51;;;;;;;16.55;8.38;;;11.80;99.90;;;;;;5013707;28;20058;-42
2021/11/19 07:22:17;;;;;;;12.30;6.95;;;11.80;99.90;;;;;;5011674;28;20030;-41
2021/11/19 07:24:43;;;;;;;10.20;7.25;;;11.80;99.90;;;;;;5013462;28;20044;-40
2021/11/19 07:27:11;;;;;;;14.13;6.85;;;11.80;99.90;;;;;;5013484;28;20082;-43
2021/11/19 07:29:37;;;;;;;10.15;6.57;;;11.80;99.90;;;;;;5013633;28;20026;-40
2021/11/19 07:32:03;;;;;;;6.70;5.05;;;11.80;99.90;;;;;;5013487;28;20303;-41
2021/11/19 07:34:28;;;;;;;9.80;6.45;;;11.90;99.90;;;;;;5013326;28;20085;-40
2021/11/19 07:36:54;;;;;;;9.05;6.70;;;11.90;99.90;;;;;;5012043;28;20441;-43
2021/11/19 07:39:19;;;;;;;10.38;6.43;;;11.90;99.90;;;;;;5013207;28;20197;-43
2021/11/19 07:41:45;;;;;;;11.32;6.53;;;11.90;99.90;;;;;;5013510;28;20073;-41
2021/11/19 07:44:11;;;;;;;10.95;6.50;;;11.90;99.90;;;;;;5013463;28;20077;-41
2021/11/19 07:46:36;;;;;;;12.50;7.03;;;12.00;99.90;;;;;;5013550;28;20045;-40
2021/11/19 07:49:03;;;;;;;11.35;7.05;;;11.90;99.90;;;;;;5013433;28;20488;-41
2021/11/19 07:51:32;;;;;;;10.63;6.72;;;12.00;99.90;;;;;;5012156;28;20141;-45
2021/11/19 07:53:58;;;;;;;10.75;6.38;;;12.00;99.90;;;;;;5013306;28;20026;-42
2021/11/19 07:56:32;;;;;;;10.35;6.63;;;12.00;99.90;;;;;;5013400;28;20026;-43
2021/11/19 07:59:00;;;;;;;9.68;6.57;;;12.00;99.90;;;;;;5013294;28;20054;-42
2021/11/19 08:01:26;;;;;;;10.63;6.93;;;12.00;99.90;;;;;;5026252;28;20056;-43
2021/11/19 08:03:51;;;;;;;9.82;6.63;;;12.00;99.90;;;;;;5032208;28;20308;-42
2021/11/19 08:06:17;;;;;;;7.90;6.45;;;12.00;99.90;;;;;;5031427;28;20021;-40
2021/11/19 08:08:43;;;;;;;8.68;5.35;;;12.10;99.90;;;;;;5032693;28;20029;-41
2021/11/19 08:11:11;;;;;;;7.93;5.35;;;12.10;99.90;;;;;;5032645;28;20026;-45
2021/11/19 08:13:38;;;;;;;10.00;5.88;;;12.10;99.90;;;;;;5032661;28;20029;-40
2021/11/19 08:16:05;;;;;;;9.75;6.78;;;12.10;99.90;;;;;;5032457;28;20025;-45
2021/11/19 08:18:34;;;;;;;9.55;5.78;;;12.10;99.90;;;;;;5031555;28;20032;-43
2021/11/19 08:21:01;;;;;;;7.25;5.70;;;12.10;99.90;;;;;;5031083;28;20041;-41
2021/11/19 08:23:35;;;;;;;9.38;5.45;;;12.20;99.90;;;;;;5032524;28;20461;-39
2021/11/19 08:26:20;;;;;;;7.40;5.07;;;12.20;99.90;;;;;;5032379;28;20378;-41
2021/11/19 08:28:46;;;;;;;6.75;5.10;;;12.20;99.90;;;;;;5032435;28;20013;-46
2021/11/19 08:31:14;;;;;;;11.45;6.22;;;12.20;99.90;;;;;;5031399;28;20025;-41
2021/11/19 08:33:40;;;;;;;6.80;5.57;;;12.20;99.90;;;;;;5032115;28;20068;-41
2021/11/19 08:36:07;;;;;;;7.72;5.60;;;12.20;99.90;;;;;;5030986;28;20083;-44
2021/11/19 08:38:32;;;;;;;8.02;5.10;;;12.20;99.90;;;;;;5032352;28;20498;-41
2021/11/19 08:40:58;;;;;;;8.52;5.30;;;12.30;99.90;;;;;;5032317;28;20036;-43
2021/11/19 08:43:28;;;;;;;9.90;5.28;;;12.30;99.90;;;;;;5031210;28;20029;-49
2021/11/19 08:45:56;;;;;;;6.80;5.03;;;12.30;99.90;;;;;;5032033;28;20029;-46
2021/11/19 08:48:23;;;;;;;6.40;4.43;;;12.30;99.90;;;;;;5031010;28;20033;-48
2021/11/19 08:50:49;;;;;;;7.63;5.35;;;12.40;99.90;;;;;;5031100;28;20025;-45
2021/11/19 08:53:16;;;;;;;9.60;5.25;;;12.40;99.90;;;;;;5032202;28;20034;-48
2021/11/19 08:55:45;;;;;;;7.95;6.18;;;12.40;99.90;;;;;;5032239;28;20121;-48
2021/11/19 08:58:18;;;;;;;6.80;5.03;;;12.40;99.90;;;;;;5032123;28;20036;-46
2021/11/19 09:00:45;;;;;;;6.53;5.15;;;12.40;99.90;;;;;;5032026;28;20031;-45
2021/11/19 09:03:10;;;;;;;10.00;5.50;;;12.40;99.90;;;;;;5031962;28;20029;-43
2021/11/19 09:05:39;;;;;;;6.40;4.75;;;12.40;99.90;;;;;;5030866;28;20035;-41
2021/11/19 09:08:06;;;;;;;11.02;5.60;;;12.40;99.90;;;;;;5031887;28;20477;-47
2021/11/19 09:10:33;;;;;;;8.35;5.82;;;12.40;99.90;;;;;;5032072;28;20029;-45
2021/11/19 09:12:58;;;;;;;6.43;4.80;;;12.50;99.90;;;;;;5031743;28;20121;-47
2021/11/19 09:15:25;;;;;;;10.50;5.90;;;12.50;99.90;;;;;;5031943;28;20108;-42
2021/11/19 09:18:17;;;;;;;9.80;5.85;;;12.50;99.90;;;;;;5031953;28;20029;-42
2021/11/19 09:20:45;;;;;;;7.47;5.53;;;12.50;99.90;;;;;;5030708;28;20045;-49
2021/11/19 09:23:18;;;;;;;7.72;5.15;;;12.50;99.90;;;;;;5031643;28;20087;-43
2021/11/19 09:25:47;;;;;;;7.18;4.63;;;12.50;99.90;;;;;;5031805;28;20033;-46
2021/11/19 09:28:13;;;;;;;9.25;5.35;;;12.60;99.90;;;;;;5031724;28;20026;-43
2021/11/19 09:30:43;;;;;;;8.88;6.03;;;12.60;99.90;;;;;;5031920;28;20030;-42
2021/11/19 09:33:13;;;;;;;7.47;5.55;;;12.60;99.90;;;;;;5031701;28;20370;-41
2021/11/19 09:35:39;;;;;;;6.70;4.95;;;12.50;99.90;;;;;;5030559;28;20527;-41
2021/11/19 09:38:06;;;;;;;7.90;5.45;;;12.50;99.90;;;;;;5031562;28;20396;-42
2021/11/19 09:40:44;;;;;;;7.50;5.35;;;12.50;99.90;;;;;;5032096;28;20420;-45
2021/11/19 09:43:10;;;;;;;9.40;5.97;;;12.50;99.90;;;;;;5031599;28;20117;-45
2021/11/19 09:46:09;;;;;;;7.97;4.95;;;12.50;99.90;;;;;;5033665;28;20057;-42
2021/11/19 09:48:58;;;;;;;6.40;4.97;;;12.60;99.90;;;;;;5035058;28;20025;-43
2021/11/19 09:51:54;;;;;;;7.05;5.03;;;12.60;99.90;;;;;;5034027;28;20021;-40
2021/11/19 09:54:43;;;;;;;5.68;4.90;;;12.60;99.90;;;;;;5035250;28;20029;-42
2021/11/19 09:57:49;;;;;;;8.88;5.18;;;12.60;99.90;;;;;;5035064;28;20053;-42
2021/11/19 10:00:29;;;;;;;9.82;4.90;;;12.60;99.90;;;;;;5034909;28;20026;-41
2021/11/19 10:03:41;;;;;;;7.05;5.32;;;12.60;99.90;;;;;;5034974;28;20121;-42
2021/11/19 10:06:14;;;;;;;6.20;4.82;;;12.60;99.90;;;;;;5033465;28;20025;-43
2021/11/19 10:08:57;;;;;;;8.23;6.03;;;12.60;99.90;;;;;;5034856;28;20032;-44
2021/11/19 10:11:46;;;;;;;8.45;5.85;;;12.60;99.90;;;;;;5034873;28;20025;-46
2021/11/19 10:14:27;;;;;;;10.70;5.75;;;12.60;99.90;;;;;;5034608;28;20055;-42
2021/11/19 10:17:25;;;;;;;7.90;6.05;;;12.60;99.90;;;;;;5035021;28;20101;-43
2021/11/19 10:19:57;;;;;;;8.50;5.57;;;12.60;99.90;;;;;;5030486;28;20040;-46
2021/11/19 10:22:25;;;;;;;8.73;5.97;;;12.60;99.90;;;;;;5033190;28;20118;-42
2021/11/19 10:25:15;;;;;;;12.13;6.20;;;12.60;99.90;;;;;;5034703;28;20029;-42
2021/11/19 10:27:45;;;;;;;9.32;7.32;;;12.60;99.90;;;;;;5034630;28;20017;-42
2021/11/19 10:30:35;;;;;;;8.63;6.05;;;12.60;99.90;;;;;;5034237;28;20378;-42
2021/11/19 10:33:16;;;;;;;8.18;6.18;;;12.60;99.90;;;;;;5034229;28;20512;-44
2021/11/19 10:35:53;;;;;;;9.23;6.95;;;12.70;99.90;;;;;;5033038;28;20037;-42
2021/11/19 10:38:51;;;;;;;9.65;6.45;;;12.70;99.90;;;;;;5034291;28;20306;-42
2021/11/19 10:42:09;;;;;;;9.32;6.50;;;12.70;99.90;;;;;;5034151;28;20031;-42
2021/11/19 10:44:56;;;;;;;11.73;7.95;;;12.70;99.90;;;;;;5010868;28;20046;-42
2021/11/19 10:47:37;;;;;;;11.43;7.63;;;12.70;99.90;;;;;;5034131;28;20056;-45
2021/11/19 10:50:33;;;;;;;12.63;7.53;;;12.70;99.90;;;;;;5034089;28;20030;-42
2021/11/19 10:53:12;;;;;;;14.43;7.68;;;12.60;99.90;;;;;;5034196;28;20041;-43
2021/11/19 10:56:07;;;;;;;11.27;7.80;;;12.60;99.90;;;;;;5034065;28;20092;-44
2021/11/19 10:58:50;;;;;;;11.35;6.57;;;12.60;99.90;;;;;;5033941;28;20041;-43
2021/11/19 11:01:25;;;;;;;9.65;7.60;;;12.60;99.90;;;;;;5033998;28;20022;-51
2021/11/19 11:03:59;;;;;;;10.98;7.38;;;12.60;99.90;;;;;;5033971;28;20022;-48
2021/11/19 11:06:52;;;;;;;9.48;6.32;;;12.70;99.90;;;;;;5032941;28;20104;-46
2021/11/19 11:09:29;;;;;;;13.73;7.93;;;12.70;99.90;;;;;;5033155;28;20060;-48
2021/11/19 11:12:12;;;;;;;13.98;7.78;;;12.70;99.90;;;;;;5033913;28;20022;-44
2021/11/19 11:14:42;;;;;;;11.02;8.13;;;12.70;99.90;;;;;;5031643;28;20030;-49
2021/11/19 11:17:47;;;;;;;13.43;8.52;;;12.70;99.90;;;;;;5032110;28;20029;-47
2021/11/19 11:20:24;;;;;;;10.73;7.20;;;12.70;99.90;;;;;;5020640;28;20088;-46
2021/11/19 11:22:56;;;;;;;15.30;8.40;;;12.70;99.90;;;;;;5032438;28;20026;-43
2021/11/19 11:25:33;;;;;;;14.90;8.18;;;12.70;99.90;;;;;;5033603;28;20052;-43
2021/11/19 11:28:10;;;;;;;14.77;8.40;;;12.70;99.90;;;;;;5033653;28;20403;-44
2021/11/19 11:30:59;;;;;;;13.68;8.52;;;12.70;99.90;;;;;;5033534;28;20423;-44
2021/11/19 11:33:47;;;;;;;10.13;7.68;;;12.70;99.90;;;;;;5033258;28;20527;-43
2021/11/19 11:36:19;;;;;;;11.18;8.20;;;12.70;99.90;;;;;;5032425;28;20036;-46
2021/11/19 11:39:04;;;;;;;15.48;7.75;;;12.80;99.90;;;;;;5033462;28;20400;-41
2021/11/19 11:41:53;;;;;;;11.23;7.55;;;12.70;99.90;;;;;;5033340;28;20035;-47
2021/11/19 11:44:22;;;;;;;14.48;8.40;;;12.70;99.90;;;;;;5032661;28;20038;-43
2021/11/19 11:46:50;;;;;;;14.88;8.88;;;12.70;99.90;;;;;;5033297;28;20034;-45
2021/11/19 11:49:39;;;;;;;13.68;9.85;;;12.70;99.90;;;;;;5033238;28;20026;-42
2021/11/19 11:52:18;;;;;;;13.73;8.70;;;12.70;99.90;;;;;;5032320;28;20104;-50
2021/11/19 11:55:13;;;;;;;13.15;8.43;;;12.70;99.90;;;;;;5033111;28;20030;-49
2021/11/19 11:57:48;;;;;;;10.40;7.32;;;12.80;99.90;;;;;;5033077;28;20477;-45
2021/11/19 12:00:33;;;;;;;18.75;8.20;;;12.80;99.90;;;;;;5033001;28;20025;-44
2021/11/19 12:03:26;;;;;;;12.85;7.55;;;12.80;99.90;;;;;;5033031;28;20063;-50
2021/11/19 12:06:14;;;;;;;16.58;8.95;;;12.80;99.90;;;;;;5032026;28;20020;-45
2021/11/19 12:09:03;;;;;;;14.35;7.53;;;12.80;99.90;;;;;;5032649;28;20116;-43
2021/11/19 12:11:50;;;;;;;13.48;7.70;;;12.80;99.90;;;;;;5032845;28;20028;-42
2021/11/19 12:14:45;;;;;;;14.38;7.97;;;12.80;99.90;;;;;;5032783;28;20106;-42
2021/11/19 12:17:31;;;;;;;13.32;7.53;;;12.80;99.90;;;;;;5032839;28;20025;-44
2021/11/19 12:20:15;;;;;;;;;;;12.80;99.90;;;;;;5033272;28;20021;-42
2021/11/19 12:23:03;;;;;;;12.88;6.57;;;12.80;99.90;;;;;;5031708;28;19908;-42
2021/11/19 12:25:50;;;;;;;9.30;6.47;;;12.80;99.90;;;;;;5032627;28;20031;-43
2021/11/19 12:28:22;;;;;;;13.98;7.03;;;12.90;99.90;;;;;;5032654;28;20018;-42
2021/11/19 12:31:10;;;;;;;17.15;5.95;;;12.80;99.90;;;;;;5032725;28;20416;-41
2021/11/19 12:33:45;;;;;;;10.38;5.03;;;12.90;99.90;;;;;;5032379;28;20076;-42
2021/11/19 12:36:16;;;;;;;11.00;6.18;;;12.90;99.90;;;;;;5031188;28;20039;-47
2021/11/19 12:38:45;;;;;;;11.27;6.57;;;12.90;99.90;;;;;;5028926;28;20528;-41
2021/11/19 12:41:25;;;;;;;11.98;6.28;;;12.90;99.90;;;;;;5032468;28;20021;-42
2021/11/19 12:43:50;;;;;;;11.75;5.97;;;12.90;99.90;;;;;;5032480;28;20025;-45
2021/11/19 12:46:56;;;;;;;11.35;5.47;;;12.90;99.90;;;;;;5032518;28;20412;-43
2021/11/19 12:49:53;;;;;;;8.43;5.32;;;12.90;99.90;;;;;;5032446;28;20071;-41
2021/11/19 12:52:22;;;;;;;5.95;4.60;;;12.90;99.90;;;;;;5031644;28;20064;-43
2021/11/19 12:55:33;;;;;;;8.88;4.65;;;12.90;99.90;;;;;;5032520;28;20018;-44
2021/11/19 12:58:20;;;;;;;8.18;4.82;;;12.90;99.90;;;;;;5032322;28;20053;-42
2021/11/19 13:01:08;;;;;;;9.38;4.78;;;12.90;99.90;;;;;;5032438;28;20076;-42
2021/11/19 13:03:45;;;;;;;9.18;4.93;;;12.90;99.90;;;;;;5032237;28;20481;-42
2021/11/19 13:06:28;;;;;;;6.85;4.03;;;12.90;99.90;;;;;;5031496;28;20033;-46